Time;durP1;ratioP1;P1;durP2;ratioP2;P2;SDS_P1;SDS_P2;PMS_P1;PMS_P2;Temp;Humidity;BMP_temperature;BMP_pressure;BME280_temperature;BME280_humidity;BME280_pressure;Samples;Min_cycle;Max_cycle;Signal;HPM_P1;HPM_P2
2023/09/05 00:00:20;;;;;;;3.45;2.10;;;;;;;24.72;100.00;101648.09;5039814;28;20045;-49
2023/09/05 00:02:48;;;;;;;4.28;2.22;;;;;;;24.71;100.00;101657.13;5027549;28;20057;-50
2023/09/05 00:05:17;;;;;;;5.00;2.40;;;;;;;24.66;100.00;101658.59;5034200;28;20426;-47
2023/09/05 00:07:43;;;;;;;4.80;2.28;;;;;;;24.69;100.00;101660.47;5036817;28;20049;-48
2023/09/05 00:10:11;;;;;;;2.78;1.90;;;;;;;24.72;100.00;101662.31;5034490;28;20242;-46
2023/09/05 00:12:40;;;;;;;3.28;1.85;;;;;;;24.71;100.00;101657.91;5032592;28;20045;-47
2023/09/05 00:15:09;;;;;;;4.90;2.03;;;;;;;24.69;100.00;101663.31;5032720;28;20084;-50
2023/09/05 00:17:37;;;;;;;5.43;2.05;;;;;;;24.72;100.00;101662.31;5031862;28;20053;-49
2023/09/05 00:20:05;;;;;;;3.85;2.10;;;;;;;24.74;100.00;101651.22;5038460;28;20472;-45
2023/09/05 00:22:31;;;;;;;4.60;1.98;;;;;;;24.76;100.00;101650.72;5033931;28;20072;-45
2023/09/05 00:24:58;;;;;;;3.40;2.00;;;;;;;24.78;100.00;101651.81;5035298;28;20049;-47
2023/09/05 00:27:25;;;;;;;5.88;2.53;;;;;;;24.84;100.00;101649.06;5040307;28;20128;-47
2023/09/05 00:29:51;;;;;;;4.30;2.13;;;;;;;24.80;100.00;101649.25;5034219;28;20127;-48
2023/09/05 00:32:18;;;;;;;5.45;2.03;;;;;;;24.78;100.00;101646.13;5027585;28;20568;-43
2023/09/05 00:34:45;;;;;;;4.63;2.40;;;;;;;24.71;100.00;101645.75;5029381;28;20467;-45
2023/09/05 00:39:48;;;;;;;5.65;1.90;;;;;;;24.75;100.00;101658.50;4982762;28;20060;-46
2023/09/05 00:42:15;;;;;;;3.08;1.98;;;;;;;24.70;100.00;101655.56;4988271;28;20059;-49
2023/09/05 00:44:44;;;;;;;5.20;2.28;;;;;;;24.68;100.00;101661.75;4985055;28;20059;-49
2023/09/05 00:47:13;;;;;;;4.55;2.47;;;;;;;24.77;100.00;101655.91;4987220;28;20151;-49
2023/09/05 00:49:46;;;;;;;3.75;2.15;;;;;;;24.74;100.00;101656.91;4988775;28;20058;-48
2023/09/05 00:52:14;;;;;;;5.57;2.38;;;;;;;24.75;100.00;101652.81;4987323;28;20623;-49
2023/09/05 00:54:42;;;;;;;3.72;2.10;;;;;;;24.73;100.00;101654.59;4987793;28;20117;-50
2023/09/05 00:57:15;;;;;;;2.80;1.50;;;;;;;24.73;100.00;101649.66;4986240;28;20145;-48
2023/09/05 00:59:42;;;;;;;3.90;2.05;;;;;;;24.77;100.00;101655.91;4984953;28;20499;-50
2023/09/05 01:02:09;;;;;;;4.47;2.17;;;;;;;24.79;100.00;101653.38;4987694;28;20081;-48
2023/09/05 01:04:36;;;;;;;5.22;2.40;;;;;;;24.80;100.00;101649.25;4987656;28;20043;-50
2023/09/05 01:07:08;;;;;;;2.85;1.85;;;;;;;24.78;100.00;101648.97;4987588;28;20701;-49
2023/09/05 01:09:47;;;;;;;3.55;1.80;;;;;;;24.85;100.00;101645.75;4986154;28;20046;-50
2023/09/05 01:12:14;;;;;;;3.92;2.10;;;;;;;24.83;100.00;101648.25;4988245;28;20082;-49
2023/09/05 01:14:41;;;;;;;3.90;2.08;;;;;;;24.77;100.00;101647.38;4988842;28;20535;-51
2023/09/05 01:17:07;;;;;;;3.53;2.20;;;;;;;24.75;100.00;101644.28;4988485;28;20093;-51
2023/09/05 01:19:38;;;;;;;2.88;1.88;;;;;;;24.80;100.00;101649.25;4985323;28;20117;-49
2023/09/05 01:22:23;;;;;;;3.85;2.25;;;;;;;24.82;100.00;101652.41;4986835;28;20058;-46
2023/09/05 01:24:50;;;;;;;2.45;1.70;;;;;;;24.85;100.00;101645.75;4990869;28;20150;-50
2023/09/05 01:27:22;;;;;;;5.18;2.00;;;;;;;24.82;100.00;101641.00;4991604;28;20157;-49
2023/09/05 01:29:50;;;;;;;3.13;2.00;;;;;;;24.78;100.00;101643.28;4991228;28;20078;-47
2023/09/05 01:32:17;;;;;;;3.33;2.20;;;;;;;24.80;100.00;101649.25;4990597;28;20108;-47
2023/09/05 01:34:44;;;;;;;4.90;2.40;;;;;;;24.78;100.00;101648.19;4992106;28;20420;-46
2023/09/05 01:37:14;;;;;;;3.50;2.10;;;;;;;24.74;100.00;101656.91;4990705;28;20055;-44
2023/09/05 01:39:41;;;;;;;4.38;2.20;;;;;;;24.70;100.00;101655.56;4989526;28;20116;-44
2023/09/05 01:42:08;;;;;;;6.30;2.65;;;;;;;24.71;100.00;101646.53;4986360;28;20520;-49
2023/09/05 01:44:36;;;;;;;3.08;1.80;;;;;;;24.72;100.00;101648.09;4990509;28;20086;-48
2023/09/05 01:47:03;;;;;;;6.30;2.25;;;;;;;24.76;100.00;101645.03;4991260;28;20137;-50
2023/09/05 01:49:29;;;;;;;4.88;2.08;;;;;;;24.78;100.00;101634.75;4991627;28;20054;-44
2023/09/05 01:51:56;;;;;;;3.97;2.00;;;;;;;24.77;100.00;101627.47;4989680;28;20081;-47
2023/09/05 01:54:24;;;;;;;3.22;2.05;;;;;;;24.77;100.00;101632.41;4990819;28;20124;-47
2023/09/05 01:56:51;;;;;;;3.70;2.03;;;;;;;24.75;100.00;101634.94;4991519;28;20058;-48
2023/09/05 01:59:21;;;;;;;2.15;1.63;;;;;;;24.69;100.00;101639.75;4990868;28;20050;-45
2023/09/05 02:01:48;;;;;;;5.25;2.30;;;;;;;24.81;100.00;101638.66;4992236;28;20058;-46
2023/09/05 02:04:15;;;;;;;5.18;2.22;;;;;;;24.95;100.00;101641.50;4991416;28;20054;-52
2023/09/05 02:06:41;;;;;;;5.20;2.38;;;;;;;25.00;100.00;101646.47;4989531;28;20100;-49
2023/09/05 02:09:08;;;;;;;6.13;2.28;;;;;;;25.04;100.00;101640.59;4987233;28;20131;-48
2023/09/05 02:11:34;;;;;;;3.45;1.92;;;;;;;25.01;100.00;101645.19;4991454;28;20057;-50
2023/09/05 02:14:01;;;;;;;5.93;2.10;;;;;;;25.01;100.00;101645.19;4991275;28;20050;-48
2023/09/05 02:16:28;;;;;;;5.88;1.80;;;;;;;24.95;100.00;101638.66;4991233;28;20492;-48
2023/09/05 02:18:55;;;;;;;3.92;2.22;;;;;;;24.96;100.00;101643.06;4990934;28;20637;-48
2023/09/05 02:21:21;;;;;;;2.00;1.63;;;;;;;24.95;100.00;101635.81;4989030;28;20082;-50
2023/09/05 02:23:48;;;;;;;4.38;2.10;;;;;;;24.92;100.00;101639.66;4990895;28;20065;-47
2023/09/05 02:26:15;;;;;;;3.95;2.28;;;;;;;24.90;100.00;101635.75;4990660;28;20050;-47
2023/09/05 02:28:41;;;;;;;5.03;1.80;;;;;;;24.91;100.00;101643.78;4990482;28;20137;-50
2023/09/05 02:31:08;;;;;;;4.60;2.13;;;;;;;24.85;100.00;101640.06;4987058;28;20088;-47
2023/09/05 02:33:36;;;;;;;4.85;2.28;;;;;;;24.84;100.00;101638.47;4989083;28;20052;-47
2023/09/05 02:36:07;;;;;;;2.97;1.77;;;;;;;24.84;100.00;101649.06;4989197;28;20066;-44
2023/09/05 02:38:34;;;;;;;4.55;2.17;;;;;;;24.86;100.00;101649.34;4992927;28;20054;-48
2023/09/05 02:41:01;;;;;;;3.75;1.83;;;;;;;24.87;100.00;101653.78;4986384;28;20042;-48
2023/09/05 02:43:27;;;;;;;3.25;2.00;;;;;;;24.82;100.00;101652.41;4982020;28;20046;-49
2023/09/05 02:45:54;;;;;;;3.53;2.00;;;;;;;24.83;100.00;101653.16;4989714;28;20052;-47
2023/09/05 02:48:20;;;;;;;4.28;2.28;;;;;;;24.78;100.00;101657.50;4986946;28;20046;-46
2023/09/05 02:50:47;;;;;;;2.78;1.90;;;;;;;24.75;100.00;101647.13;4988676;28;20100;-46
2023/09/05 02:53:13;;;;;;;3.42;2.00;;;;;;;24.75;100.00;101661.34;4987702;28;20050;-48
2023/09/05 02:55:44;;;;;;;5.45;1.73;;;;;;;24.75;100.00;101664.19;4985075;28;20158;-45
2023/09/05 02:58:10;;;;;;;4.70;2.42;;;;;;;24.75;100.00;101666.22;4986735;28;20066;-50
2023/09/05 03:00:37;;;;;;;3.47;1.88;;;;;;;24.74;100.00;101665.44;4984471;28;20505;-47
2023/09/05 03:03:04;;;;;;;4.05;2.30;;;;;;;24.73;100.00;101672.41;4987418;28;20137;-50
2023/09/05 03:05:31;;;;;;;5.72;2.60;;;;;;;24.75;100.00;101671.91;4990254;28;20057;-45
2023/09/05 03:07:57;;;;;;;3.03;1.90;;;;;;;24.75;100.00;101663.38;4989375;28;20527;-50
2023/09/05 03:10:24;;;;;;;6.03;2.17;;;;;;;24.74;100.00;101667.50;4988813;28;20042;-46
2023/09/05 03:12:50;;;;;;;6.40;2.10;;;;;;;24.71;100.00;101666.44;4988488;28;20081;-49
2023/09/05 03:15:20;;;;;;;3.97;1.73;;;;;;;24.73;100.00;101658.19;4988006;28;20137;-47
2023/09/05 03:17:47;;;;;;;4.13;2.00;;;;;;;24.75;100.00;101666.22;4988428;28;20611;-49
2023/09/05 03:20:15;;;;;;;2.88;1.73;;;;;;;24.72;100.00;101662.31;4985363;28;20049;-48
2023/09/05 03:22:42;;;;;;;4.80;2.15;;;;;;;24.72;100.00;101664.38;4993475;28;20085;-48
2023/09/05 03:25:08;;;;;;;4.28;2.15;;;;;;;24.72;100.00;101645.25;4988951;28;20046;-48
2023/09/05 03:27:35;;;;;;;5.55;2.20;;;;;;;24.70;100.00;101656.34;4988359;28;20150;-50
2023/09/05 03:30:01;;;;;;;3.47;2.20;;;;;;;24.70;100.00;101653.50;4988567;28;20058;-50
2023/09/05 03:32:28;;;;;;;5.22;1.92;;;;;;;24.71;100.00;101652.22;4988130;28;20080;-51
2023/09/05 03:34:55;;;;;;;2.67;1.60;;;;;;;24.70;100.00;101649.88;4988619;28;20054;-46
2023/09/05 03:37:23;;;;;;;3.63;1.95;;;;;;;24.66;100.00;101655.75;4986825;28;20054;-49
2023/09/05 03:39:49;;;;;;;5.28;2.00;;;;;;;24.67;100.00;101662.25;4988540;28;20441;-47
2023/09/05 03:42:16;;;;;;;5.05;2.33;;;;;;;24.66;100.00;101669.97;4988500;28;20053;-48
2023/09/05 03:44:43;;;;;;;2.85;1.70;;;;;;;24.66;100.00;101661.44;4987685;28;20801;-46
2023/09/05 03:47:09;;;;;;;4.88;1.90;;;;;;;24.67;100.00;101663.00;4985116;28;20133;-50
2023/09/05 03:49:36;;;;;;;2.08;1.70;;;;;;;24.66;100.00;101661.44;4986894;28;20146;-50
2023/09/05 03:52:03;;;;;;;4.40;2.28;;;;;;;24.66;100.00;101661.44;4988161;28;20046;-49
2023/09/05 03:54:29;;;;;;;2.55;1.55;;;;;;;24.67;100.00;101665.84;4987394;28;20116;-47
2023/09/05 03:56:56;;;;;;;2.83;2.05;;;;;;;24.64;100.00;101658.31;4993695;28;20058;-49
2023/09/05 03:59:22;;;;;;;4.72;2.05;;;;;;;24.62;100.00;101660.88;4988160;28;20133;-47
2023/09/05 04:01:51;;;;;;;5.55;2.13;;;;;;;24.62;100.00;101660.88;4986700;28;20101;-45
2023/09/05 04:04:18;;;;;;;4.65;2.00;;;;;;;24.61;100.00;101661.34;4988033;28;20053;-49
2023/09/05 04:06:44;;;;;;;2.60;1.67;;;;;;;24.61;100.00;101662.16;4996311;28;20058;-46
2023/09/05 04:09:11;;;;;;;2.97;1.52;;;;;;;24.61;100.00;101661.34;4987880;28;20145;-46
2023/09/05 04:11:37;;;;;;;4.13;2.20;;;;;;;24.60;100.00;101663.41;4980475;28;20066;-46
2023/09/05 04:14:04;;;;;;;3.60;2.13;;;;;;;24.61;100.00;101661.34;4987619;28;20093;-49
2023/09/05 04:16:30;;;;;;;3.33;1.80;;;;;;;24.57;100.00;101661.53;4989305;28;20563;-49
2023/09/05 04:18:57;;;;;;;3.20;1.77;;;;;;;24.61;100.00;101662.16;4985064;28;20109;-47
2023/09/05 04:21:23;;;;;;;4.13;2.30;;;;;;;24.59;100.00;101663.91;4987608;28;20049;-45
2023/09/05 04:23:50;;;;;;;5.05;2.20;;;;;;;24.57;100.00;101657.94;4986975;28;20058;-46
2023/09/05 04:26:18;;;;;;;4.45;2.10;;;;;;;24.52;100.00;101650.88;4986554;28;20046;-50
2023/09/05 04:28:44;;;;;;;2.63;1.75;;;;;;;24.56;100.00;101659.22;4987729;28;20158;-50
2023/09/05 04:31:17;;;;;;;3.83;2.00;;;;;;;24.55;100.00;101661.28;4986608;28;20189;-47
2023/09/05 04:33:45;;;;;;;3.17;1.77;;;;;;;24.57;100.00;101655.09;4987235;28;20698;-46
2023/09/05 04:36:12;;;;;;;4.05;2.13;;;;;;;24.56;100.00;101654.31;4994492;28;20049;-46
2023/09/05 04:38:38;;;;;;;3.80;2.05;;;;;;;24.57;100.00;101660.78;4985378;28;20065;-49
2023/09/05 04:41:07;;;;;;;5.65;1.98;;;;;;;24.58;100.00;101653.81;4986709;28;20050;-49
2023/09/05 04:43:35;;;;;;;5.35;2.10;;;;;;;24.56;100.00;101656.38;4988729;28;20515;-52
2023/09/05 04:46:05;;;;;;;5.18;1.90;;;;;;;24.55;100.00;101657.63;4986108;28;20127;-46
2023/09/05 04:48:32;;;;;;;4.22;1.98;;;;;;;24.57;100.00;101658.69;4980530;28;20902;-48
2023/09/05 04:51:02;;;;;;;2.70;1.60;;;;;;;24.53;100.00;101649.59;4991561;28;20057;-48
2023/09/05 04:53:29;;;;;;;3.22;1.80;;;;;;;24.57;100.00;101657.94;4981090;28;20133;-45
2023/09/05 04:56:00;;;;;;;2.38;1.73;;;;;;;24.56;100.00;101654.31;4986910;28;20054;-49
2023/09/05 04:58:27;;;;;;;4.65;2.00;;;;;;;24.51;100.00;101665.59;4987290;28;20077;-46
2023/09/05 05:00:56;;;;;;;5.18;2.10;;;;;;;24.53;100.00;101669.50;4990039;28;20130;-47
2023/09/05 05:03:26;;;;;;;2.30;1.58;;;;;;;24.54;100.00;101662.56;4990838;28;20058;-46
2023/09/05 05:05:53;;;;;;;4.68;2.20;;;;;;;24.52;100.00;101667.94;4991560;28;20293;-47
2023/09/05 05:08:19;;;;;;;3.42;1.90;;;;;;;24.56;100.00;101664.91;4990692;28;20057;-49
2023/09/05 05:10:46;;;;;;;4.35;1.83;;;;;;;24.55;100.00;101671.84;4990601;28;20046;-47
2023/09/05 05:13:13;;;;;;;3.97;1.85;;;;;;;24.53;100.00;101671.56;4991716;28;20050;-49
2023/09/05 05:15:39;;;;;;;4.40;2.15;;;;;;;24.51;100.00;101672.06;4990146;28;20429;-47
2023/09/05 05:18:06;;;;;;;3.63;1.80;;;;;;;24.52;100.00;101676.47;4992723;28;20053;-48
2023/09/05 05:20:35;;;;;;;4.43;1.85;;;;;;;24.53;100.00;101677.25;4983339;28;20050;-48
2023/09/05 05:23:01;;;;;;;2.83;1.65;;;;;;;24.55;100.00;101675.47;4992248;28;20108;-48
2023/09/05 05:25:28;;;;;;;3.38;1.90;;;;;;;24.51;100.00;101674.91;4985110;28;20133;-52
2023/09/05 05:27:54;;;;;;;4.30;2.13;;;;;;;24.51;100.00;101677.75;4991473;28;20543;-50
2023/09/05 05:30:21;;;;;;;2.70;1.83;;;;;;;24.50;100.00;101681.84;4988759;28;20093;-49
2023/09/05 05:32:48;;;;;;;3.30;1.67;;;;;;;24.50;100.00;101676.16;4990455;28;20109;-49
2023/09/05 05:35:14;;;;;;;2.55;1.88;;;;;;;24.50;100.00;101664.78;4989251;28;20054;-49
2023/09/05 05:37:41;;;;;;;2.65;1.63;;;;;;;24.50;100.00;101669.72;4990200;28;20079;-45
2023/09/05 05:40:10;;;;;;;3.63;1.83;;;;;;;24.47;100.00;101674.31;4989789;28;20477;-45
2023/09/05 05:42:37;;;;;;;3.40;2.03;;;;;;;24.48;100.00;101670.19;4989820;28;20057;-48
2023/09/05 05:45:04;;;;;;;3.45;1.95;;;;;;;24.48;100.00;101673.03;4990719;28;20058;-49
2023/09/05 05:47:31;;;;;;;4.00;1.85;;;;;;;24.47;100.00;101665.81;4987843;28;20104;-52
2023/09/05 05:49:57;;;;;;;4.78;1.75;;;;;;;24.46;100.00;101669.13;4990235;28;20125;-47
2023/09/05 05:52:24;;;;;;;4.43;1.88;;;;;;;24.33;100.00;101666.56;4988347;28;20047;-46
2023/09/05 05:54:51;;;;;;;4.88;2.08;;;;;;;24.39;100.00;101675.97;4990413;28;20104;-46
2023/09/05 05:57:17;;;;;;;3.92;2.22;;;;;;;24.35;100.00;101669.72;4985942;28;20141;-46
2023/09/05 05:59:44;;;;;;;5.78;2.25;;;;;;;24.35;100.00;101676.19;4990374;28;20058;-46
2023/09/05 06:02:10;;;;;;;5.63;2.38;;;;;;;24.36;100.00;101671.28;4983214;28;20600;-46
2023/09/05 06:04:37;;;;;;;5.25;2.75;;;;;;;24.27;100.00;101679.91;4990415;28;20084;-48
2023/09/05 06:07:04;;;;;;;6.15;2.45;;;;;;;24.30;100.00;101670.41;4982144;28;20054;-43
2023/09/05 06:09:30;;;;;;;6.30;2.60;;;;;;;24.23;100.00;101665.09;4988926;28;20050;-46
2023/09/05 06:11:58;;;;;;;5.68;2.60;;;;;;;24.25;100.00;101668.25;4989814;28;20138;-46
2023/09/05 06:14:24;;;;;;;6.47;2.50;;;;;;;24.27;100.00;101662.88;4989457;28;20058;-46
2023/09/05 06:16:51;;;;;;;8.13;3.05;;;;;;;24.23;100.00;101668.72;4987019;28;20058;-46
2023/09/05 06:19:20;;;;;;;10.98;2.95;;;;;;;24.22;100.00;101670.03;4989726;28;20057;-46
2023/09/05 06:21:47;;;;;;;6.40;2.65;;;;;;;24.22;100.00;101672.84;4988427;28;20115;-46
2023/09/05 06:24:14;;;;;;;7.25;2.88;;;;;;;24.04;100.00;101694.97;4989749;28;20077;-48
2023/09/05 06:26:41;;;;;;;7.90;3.78;;;;;;;24.10;100.00;101693.78;4991057;28;20089;-45
2023/09/05 06:29:08;;;;;;;5.65;2.65;;;;;;;24.02;100.00;101698.28;4986963;28;20046;-46
2023/09/05 06:31:35;;;;;;;5.82;3.08;;;;;;;24.01;100.00;101708.09;4983025;28;20428;-47
2023/09/05 06:34:02;;;;;;;7.00;2.88;;;;;;;23.78;100.00;101693.91;4989161;28;20085;-45
2023/09/05 06:36:28;;;;;;;7.35;2.90;;;;;;;23.73;100.00;101688.94;4988942;28;20050;-47
2023/09/05 06:38:55;;;;;;;6.68;2.95;;;;;;;23.84;100.00;101687.09;4985068;28;20120;-46
2023/09/05 06:41:21;;;;;;;14.10;3.63;;;;;;;23.92;100.00;101693.16;4985365;28;20133;-47
2023/09/05 06:43:48;;;;;;;12.40;3.17;;;;;;;23.79;100.00;101701.16;4987271;28;20065;-44
2023/09/05 06:46:15;;;;;;;8.82;3.00;;;;;;;23.93;100.00;101697.59;4986304;28;20088;-44
2023/09/05 06:48:41;;;;;;;9.23;2.83;;;;;;;24.04;100.00;101689.28;4985928;28;20050;-47
2023/09/05 06:51:08;;;;;;;4.65;2.45;;;;;;;24.10;100.00;101693.00;4989207;28;20089;-48
2023/09/05 06:53:34;;;;;;;7.55;2.67;;;;;;;24.12;100.00;101691.25;4988798;28;20165;-47
2023/09/05 06:56:01;;;;;;;6.03;2.83;;;;;;;24.18;100.00;101682.81;4989935;28;20054;-44
2023/09/05 06:58:27;;;;;;;13.57;3.83;;;;;;;24.19;100.00;101695.75;4987414;28;20058;-47
2023/09/05 07:00:55;;;;;;;7.45;3.45;;;;;;;24.19;100.00;101702.22;4991000;28;20046;-45
2023/09/05 07:03:25;;;;;;;7.65;3.17;;;;;;;24.21;100.00;101707.41;4987600;28;20508;-48
2023/09/05 07:05:53;;;;;;;7.07;3.10;;;;;;;24.26;100.00;101701.84;4986254;28;20112;-46
2023/09/05 07:08:23;;;;;;;10.15;3.55;;;;;;;24.19;100.00;101701.41;4988484;28;20050;-47
2023/09/05 07:10:50;;;;;;;8.30;2.80;;;;;;;24.19;100.00;101707.91;4984828;28;20104;-46
2023/09/05 07:13:16;;;;;;;11.80;3.15;;;;;;;24.18;100.00;101688.50;4986430;28;20050;-50
2023/09/05 07:15:43;;;;;;;10.20;3.30;;;;;;;24.20;100.00;101692.41;4987563;28;20188;-47
2023/09/05 07:18:12;;;;;;;7.80;3.67;;;;;;;24.21;100.00;101698.88;4986862;28;20081;-48
2023/09/05 07:20:39;;;;;;;10.55;3.20;;;;;;;24.23;100.00;101694.31;4986223;28;20042;-47
2023/09/05 07:23:06;;;;;;;8.73;3.10;;;;;;;24.27;100.00;101685.59;4986500;28;20053;-48
2023/09/05 07:25:37;;;;;;;13.85;3.33;;;;;;;24.30;100.00;101678.94;4971519;28;20046;-46
2023/09/05 07:28:05;;;;;;;11.23;3.40;;;;;;;24.28;100.00;101684.31;4981579;28;20042;-47
2023/09/05 07:30:32;;;;;;;7.40;2.90;;;;;;;24.32;100.00;101687.75;5000406;28;20575;-50
2023/09/05 07:32:59;;;;;;;10.98;3.60;;;;;;;24.32;100.00;101684.91;4984050;28;20078;-49
2023/09/05 07:35:25;;;;;;;10.98;3.50;;;;;;;24.33;100.00;101687.25;4987761;28;20109;-46
2023/09/05 07:37:52;;;;;;;11.43;3.80;;;;;;;24.33;100.00;101684.41;4985073;28;20050;-47
2023/09/05 07:40:19;;;;;;;10.60;3.40;;;;;;;24.31;100.00;101695.47;4989749;28;20073;-47
2023/09/05 07:42:45;;;;;;;11.30;3.90;;;;;;;24.35;100.00;101681.88;4988621;28;20113;-47
2023/09/05 07:45:13;;;;;;;12.77;3.60;;;;;;;24.35;100.00;101681.09;4988555;28;20058;-51
2023/09/05 07:47:40;;;;;;;12.25;3.35;;;;;;;24.33;100.00;101689.31;4985780;28;20057;-47
2023/09/05 07:50:07;;;;;;;10.18;3.40;;;;;;;24.36;100.00;101694.00;4986646;28;20061;-47
2023/09/05 07:52:34;;;;;;;13.32;3.67;;;;;;;24.37;100.00;101687.84;4987622;28;20074;-46
2023/09/05 07:55:00;;;;;;;12.52;3.85;;;;;;;24.38;100.00;101682.94;4990012;28;20054;-45
2023/09/05 07:57:27;;;;;;;11.35;3.90;;;;;;;24.40;100.00;101691.75;4987687;28;20459;-48
2023/09/05 07:59:54;;;;;;;8.57;3.30;;;;;;;24.34;100.00;101685.97;4987867;28;20046;-45
2023/09/05 08:02:20;;;;;;;14.73;4.22;;;;;;;24.39;100.00;101690.19;4985749;28;20508;-48
2023/09/05 08:04:47;;;;;;;15.40;3.35;;;;;;;24.35;100.00;101684.72;4988406;28;20057;-49
2023/09/05 08:07:13;;;;;;;11.40;3.78;;;;;;;24.39;100.00;101679.63;4988044;28;20141;-48
2023/09/05 08:09:40;;;;;;;9.70;3.63;;;;;;;24.38;100.00;101671.59;4987419;28;20062;-46
2023/09/05 08:12:06;;;;;;;10.15;3.50;;;;;;;24.39;100.00;101676.78;4988408;28;20046;-49
2023/09/05 08:14:33;;;;;;;11.40;3.38;;;;;;;24.38;100.00;101674.44;4987060;28;20053;-47
2023/09/05 08:16:59;;;;;;;10.80;3.88;;;;;;;24.39;100.00;101676.78;4990070;28;20739;-45
2023/09/05 08:19:26;;;;;;;12.07;3.42;;;;;;;24.37;100.00;101678.53;4987672;28;20595;-45
2023/09/05 08:21:53;;;;;;;8.43;3.20;;;;;;;24.37;100.00;101672.88;4988094;28;20054;-51
2023/09/05 08:24:19;;;;;;;9.70;3.65;;;;;;;24.40;100.00;101678.34;4986367;28;20124;-46
2023/09/05 08:26:46;;;;;;;10.55;3.72;;;;;;;24.42;100.00;101675.00;4987775;28;20389;-45
2023/09/05 08:29:14;;;;;;;10.07;3.08;;;;;;;24.41;100.00;101670.59;4994475;28;20050;-46
2023/09/05 08:31:40;;;;;;;10.60;3.38;;;;;;;24.41;100.00;101673.44;4983635;28;20058;-46
2023/09/05 08:34:07;;;;;;;10.48;3.75;;;;;;;24.42;100.00;101672.16;4991294;28;20050;-51
2023/09/05 08:36:34;;;;;;;10.82;3.35;;;;;;;24.39;100.00;101671.09;4991636;28;20077;-47
2023/09/05 08:39:01;;;;;;;8.02;3.28;;;;;;;24.44;100.00;101675.31;4992511;28;20061;-47
2023/09/05 08:41:29;;;;;;;11.70;3.67;;;;;;;24.42;100.00;101669.31;4989879;28;20058;-45
2023/09/05 08:43:57;;;;;;;13.95;3.50;;;;;;;24.38;100.00;101669.53;4992670;28;20489;-46
2023/09/05 08:46:24;;;;;;;8.02;2.85;;;;;;;24.44;100.00;101659.00;4989624;28;20081;-50
2023/09/05 08:48:51;;;;;;;14.45;3.50;;;;;;;24.42;100.00;101657.94;4989886;28;20050;-47
2023/09/05 08:51:26;;;;;;;8.00;3.20;;;;;;;24.45;100.00;101656.97;4991988;28;20050;-49
2023/09/05 08:53:58;;;;;;;5.85;2.60;;;;;;;24.43;100.00;101665.19;4991715;28;20061;-47
2023/09/05 08:56:25;;;;;;;8.65;3.15;;;;;;;24.44;100.00;101652.56;4990543;28;20456;-46
2023/09/05 08:58:54;;;;;;;7.47;3.28;;;;;;;24.44;100.00;101646.88;4991989;28;20065;-47
2023/09/05 09:01:21;;;;;;;7.32;3.00;;;;;;;24.42;100.00;101640.91;4989500;28;20128;-46
2023/09/05 09:03:49;;;;;;;10.38;2.90;;;;;;;24.41;100.00;101654.31;4995598;28;20085;-44
2023/09/05 09:06:15;;;;;;;6.28;2.65;;;;;;;24.37;100.00;101650.13;4989893;28;20062;-45
2023/09/05 09:08:45;;;;;;;11.30;2.88;;;;;;;24.41;100.00;101651.47;4992050;28;20054;-50
2023/09/05 09:11:12;;;;;;;9.80;3.10;;;;;;;24.45;100.00;101645.59;4990311;28;20476;-48
2023/09/05 09:13:39;;;;;;;9.18;3.40;;;;;;;24.45;100.00;101654.13;4991408;28;20047;-45
2023/09/05 09:16:06;;;;;;;11.70;2.97;;;;;;;24.46;100.00;101643.56;4989636;28;20145;-44
2023/09/05 09:18:34;;;;;;;8.13;3.08;;;;;;;24.44;100.00;101638.34;4984955;28;20058;-47
2023/09/05 09:21:04;;;;;;;9.27;3.20;;;;;;;24.41;100.00;101645.03;4986643;28;20515;-48
2023/09/05 09:23:35;;;;;;;6.13;2.90;;;;;;;24.47;100.00;101639.44;4987616;28;20278;-47
2023/09/05 09:26:05;;;;;;;5.38;2.80;;;;;;;24.46;100.00;101638.63;4990074;28;20058;-47
2023/09/05 09:28:32;;;;;;;4.57;2.47;;;;;;;24.46;100.00;101637.88;4989515;28;20424;-45
2023/09/05 09:31:07;;;;;;;9.57;3.42;;;;;;;24.46;100.00;101644.31;4989869;28;20082;-49
2023/09/05 09:33:33;;;;;;;8.65;3.58;;;;;;;24.49;100.00;101631.97;4990972;28;20050;-46
2023/09/05 09:36:00;;;;;;;4.93;2.50;;;;;;;24.49;100.00;101637.66;4991000;28;20104;-45
2023/09/05 09:38:28;;;;;;;6.43;2.90;;;;;;;24.50;100.00;101630.69;4988708;28;20129;-53
2023/09/05 09:40:55;;;;;;;8.05;3.10;;;;;;;24.42;100.00;101636.00;4983242;28;20062;-49
2023/09/05 09:43:22;;;;;;;13.18;3.78;;;;;;;24.50;100.00;101629.91;4988731;28;20054;-47
2023/09/05 09:45:50;;;;;;;9.65;3.17;;;;;;;24.48;100.00;101636.09;4989397;28;20137;-46
2023/09/05 09:48:19;;;;;;;11.70;3.33;;;;;;;24.48;100.00;101634.00;4989242;28;20228;-50
2023/09/05 09:50:46;;;;;;;11.50;2.88;;;;;;;24.46;100.00;101629.34;4990287;28;20054;-45
2023/09/05 09:53:15;;;;;;;9.80;2.85;;;;;;;24.47;100.00;101628.06;4988861;28;20401;-48
2023/09/05 09:55:43;;;;;;;6.95;2.95;;;;;;;24.52;100.00;101624.50;4988745;28;20054;-50
2023/09/05 09:58:14;;;;;;;9.10;3.17;;;;;;;24.50;100.00;101610.78;4986073;28;20488;-46
2023/09/05 10:00:46;;;;;;;5.93;2.97;;;;;;;24.50;100.00;101618.56;4989731;28;20488;-45
2023/09/05 10:03:13;;;;;;;6.50;2.92;;;;;;;24.48;100.00;101616.97;4985901;28;20050;-47
2023/09/05 10:05:41;;;;;;;7.63;3.28;;;;;;;24.54;100.00;101613.44;4988785;28;20046;-50
2023/09/05 10:08:12;;;;;;;6.55;2.58;;;;;;;24.54;100.00;101610.59;4988829;28;20050;-46
2023/09/05 10:10:40;;;;;;;13.50;2.88;;;;;;;24.50;100.00;101610.78;4991449;28;20054;-46
2023/09/05 10:13:10;;;;;;;8.68;2.70;;;;;;;24.55;100.00;101610.09;4993500;28;20133;-49
2023/09/05 10:15:39;;;;;;;7.43;2.75;;;;;;;24.52;100.00;101611.09;4990796;28;20058;-46
2023/09/05 10:18:09;;;;;;;8.25;2.85;;;;;;;24.52;100.00;101599.72;4985692;28;20132;-47
2023/09/05 10:20:39;;;;;;;6.05;2.72;;;;;;;24.55;100.00;101598.72;4990563;28;20054;-47
2023/09/05 10:23:06;;;;;;;6.28;2.58;;;;;;;24.58;100.00;101597.75;4988076;28;20050;-48
2023/09/05 10:25:36;;;;;;;6.47;2.97;;;;;;;24.59;100.00;101595.66;4987846;28;20140;-46
2023/09/05 10:28:04;;;;;;;7.88;3.03;;;;;;;24.60;100.00;101603.72;4987940;28;20046;-47
2023/09/05 10:30:42;;;;;;;6.60;2.85;;;;;;;24.59;100.00;101593.63;4988238;28;20109;-45
2023/09/05 10:33:09;;;;;;;6.80;2.40;;;;;;;24.60;100.00;101594.41;4984724;28;20050;-46
2023/09/05 10:35:36;;;;;;;6.00;2.90;;;;;;;24.62;100.00;101591.84;4990113;28;20054;-51
2023/09/05 10:38:05;;;;;;;5.75;2.60;;;;;;;24.59;100.00;101592.81;4992071;28;20050;-45
2023/09/05 10:40:36;;;;;;;10.52;3.28;;;;;;;24.56;100.00;101594.59;4981124;28;20061;-47
2023/09/05 10:43:08;;;;;;;6.70;2.72;;;;;;;24.57;100.00;101590.47;4984319;28;20050;-46
2023/09/05 10:45:37;;;;;;;7.60;2.92;;;;;;;24.54;100.00;101591.50;4986313;28;20073;-48
2023/09/05 10:48:11;;;;;;;5.70;2.47;;;;;;;24.56;100.00;101591.75;4986062;28;20595;-47
2023/09/05 10:51:05;;;;;;;5.90;2.42;;;;;;;24.57;100.00;101584.03;4990067;28;20472;-46
2023/09/05 10:53:37;;;;;;;6.78;2.53;;;;;;;24.50;100.00;101588.03;4986564;28;20050;-47
2023/09/05 10:56:05;;;;;;;6.53;2.40;;;;;;;24.57;100.00;101590.47;4985762;28;20113;-46
2023/09/05 10:58:53;;;;;;;9.05;2.45;;;;;;;24.59;100.00;101581.44;4983940;28;20108;-48
2023/09/05 11:01:30;;;;;;;4.85;2.13;;;;;;;24.60;100.00;101578.13;4985551;28;20074;-47
2023/09/05 11:04:07;;;;;;;6.72;2.50;;;;;;;24.60;100.00;101578.13;4988025;28;20212;-52
2023/09/05 11:06:34;;;;;;;5.68;2.22;;;;;;;24.56;100.00;101577.53;4985096;28;20038;-46
2023/09/05 11:09:07;;;;;;;6.75;2.58;;;;;;;24.61;100.00;101579.72;4985793;28;20061;-49
2023/09/05 11:11:37;;;;;;;7.00;2.88;;;;;;;24.61;100.00;101579.72;4987421;28;20046;-47
2023/09/05 11:14:05;;;;;;;4.45;2.58;;;;;;;24.59;100.00;101572.94;4987530;28;20413;-49
2023/09/05 11:16:46;;;;;;;6.20;2.58;;;;;;;24.57;100.00;101567.72;4987104;28;20057;-52
2023/09/05 11:19:30;;;;;;;4.95;2.40;;;;;;;24.59;100.00;101576.56;4986880;28;20497;-49
2023/09/05 11:22:11;;;;;;;9.25;2.92;;;;;;;24.58;100.00;101575.00;4989165;28;20136;-49